sensor_id;sensor_type;location;lat;lon;timestamp;P1;durP1;ratioP1;P2;durP2;ratioP2
37647;SDS011;23490;53.656;10.076;2023-02-01T00:01:36;22.15;;;3.08;;
37647;SDS011;23490;53.656;10.076;2023-02-01T00:04:01;18.33;;;3.35;;
37647;SDS011;23490;53.656;10.076;2023-02-01T00:06:27;19.65;;;3.75;;
37647;SDS011;23490;53.656;10.076;2023-02-01T00:08:53;18.55;;;3.03;;
37647;SDS011;23490;53.656;10.076;2023-02-01T00:11:19;32.55;;;4.53;;
37647;SDS011;23490;53.656;10.076;2023-02-01T00:13:44;19.83;;;3.08;;
37647;SDS011;23490;53.656;10.076;2023-02-01T00:16:12;19.33;;;3.53;;
37647;SDS011;23490;53.656;10.076;2023-02-01T00:18:41;20.08;;;3.35;;
37647;SDS011;23490;53.656;10.076;2023-02-01T00:21:07;12.30;;;3.30;;
37647;SDS011;23490;53.656;10.076;2023-02-01T00:23:33;20.58;;;2.75;;
37647;SDS011;23490;53.656;10.076;2023-02-01T00:26:04;15.90;;;2.83;;
37647;SDS011;23490;53.656;10.076;2023-02-01T00:28:31;20.23;;;3.33;;
37647;SDS011;23490;53.656;10.076;2023-02-01T00:31:00;25.20;;;4.30;;
37647;SDS011;23490;53.656;10.076;2023-02-01T00:33:28;12.90;;;2.70;;
37647;SDS011;23490;53.656;10.076;2023-02-01T00:35:57;15.07;;;2.70;;
37647;SDS011;23490;53.656;10.076;2023-02-01T00:38:24;19.77;;;3.30;;
37647;SDS011;23490;53.656;10.076;2023-02-01T00:40:50;16.63;;;4.05;;
37647;SDS011;23490;53.656;10.076;2023-02-01T00:43:15;29.58;;;4.32;;
37647;SDS011;23490;53.656;10.076;2023-02-01T00:45:40;23.25;;;3.78;;
37647;SDS011;23490;53.656;10.076;2023-02-01T00:48:05;17.63;;;3.22;;
37647;SDS011;23490;53.656;10.076;2023-02-01T00:50:31;24.95;;;3.75;;
37647;SDS011;23490;53.656;10.076;2023-02-01T00:52:56;25.65;;;4.07;;
37647;SDS011;23490;53.656;10.076;2023-02-01T00:55:21;24.35;;;4.68;;
37647;SDS011;23490;53.656;10.076;2023-02-01T00:57:47;19.95;;;4.20;;
37647;SDS011;23490;53.656;10.076;2023-02-01T01:00:12;17.48;;;3.13;;
37647;SDS011;23490;53.656;10.076;2023-02-01T01:02:38;16.98;;;3.92;;
37647;SDS011;23490;53.656;10.076;2023-02-01T01:05:03;26.80;;;5.10;;
37647;SDS011;23490;53.656;10.076;2023-02-01T01:07:29;23.38;;;4.25;;
37647;SDS011;23490;53.656;10.076;2023-02-01T01:09:54;23.85;;;3.80;;
37647;SDS011;23490;53.656;10.076;2023-02-01T01:12:19;19.98;;;4.75;;
37647;SDS011;23490;53.656;10.076;2023-02-01T01:14:45;19.90;;;3.75;;
37647;SDS011;23490;53.656;10.076;2023-02-01T01:17:10;21.33;;;3.40;;
37647;SDS011;23490;53.656;10.076;2023-02-01T01:19:36;19.67;;;4.38;;
37647;SDS011;23490;53.656;10.076;2023-02-01T01:22:01;16.10;;;4.20;;
37647;SDS011;23490;53.656;10.076;2023-02-01T01:24:27;20.85;;;3.20;;
37647;SDS011;23490;53.656;10.076;2023-02-01T01:26:52;24.77;;;4.97;;
37647;SDS011;23490;53.656;10.076;2023-02-01T01:29:18;21.13;;;3.90;;
37647;SDS011;23490;53.656;10.076;2023-02-01T01:31:43;17.23;;;3.95;;
37647;SDS011;23490;53.656;10.076;2023-02-01T01:34:09;22.08;;;3.90;;
37647;SDS011;23490;53.656;10.076;2023-02-01T01:36:34;30.35;;;5.82;;
37647;SDS011;23490;53.656;10.076;2023-02-01T01:38:59;25.17;;;4.65;;
37647;SDS011;23490;53.656;10.076;2023-02-01T01:41:28;23.70;;;5.40;;
37647;SDS011;23490;53.656;10.076;2023-02-01T01:43:57;28.25;;;4.65;;
37647;SDS011;23490;53.656;10.076;2023-02-01T01:46:25;27.95;;;5.22;;
37647;SDS011;23490;53.656;10.076;2023-02-01T01:51:35;23.63;;;4.43;;
37647;SDS011;23490;53.656;10.076;2023-02-01T01:54:21;25.58;;;4.93;;
37647;SDS011;23490;53.656;10.076;2023-02-01T01:56:51;30.23;;;4.38;;
37647;SDS011;23490;53.656;10.076;2023-02-01T01:59:22;16.20;;;3.00;;
37647;SDS011;23490;53.656;10.076;2023-02-01T02:01:49;30.15;;;5.22;;
37647;SDS011;23490;53.656;10.076;2023-02-01T02:04:15;24.35;;;4.35;;
37647;SDS011;23490;53.656;10.076;2023-02-01T02:06:42;17.90;;;3.78;;
37647;SDS011;23490;53.656;10.076;2023-02-01T02:09:15;21.33;;;3.25;;
37647;SDS011;23490;53.656;10.076;2023-02-01T02:11:41;33.17;;;4.78;;
37647;SDS011;23490;53.656;10.076;2023-02-01T02:14:07;19.10;;;3.70;;
37647;SDS011;23490;53.656;10.076;2023-02-01T02:19:36;22.42;;;5.45;;
37647;SDS011;23490;53.656;10.076;2023-02-01T02:25:12;27.35;;;5.60;;
37647;SDS011;23490;53.656;10.076;2023-02-01T02:33:57;26.17;;;4.93;;
37647;SDS011;23490;53.656;10.076;2023-02-01T02:39:21;28.08;;;3.53;;
37647;SDS011;23490;53.656;10.076;2023-02-01T02:41:59;22.40;;;4.82;;
37647;SDS011;23490;53.656;10.076;2023-02-01T02:44:56;21.25;;;5.90;;
37647;SDS011;23490;53.656;10.076;2023-02-01T02:53:38;24.20;;;4.07;;
37647;SDS011;23490;53.656;10.076;2023-02-01T02:56:43;20.73;;;4.63;;
37647;SDS011;23490;53.656;10.076;2023-02-01T02:59:27;22.13;;;4.43;;
37647;SDS011;23490;53.656;10.076;2023-02-01T03:02:13;21.35;;;3.78;;
37647;SDS011;23490;53.656;10.076;2023-02-01T03:04:58;20.60;;;3.38;;
37647;SDS011;23490;53.656;10.076;2023-02-01T03:10:08;27.65;;;4.82;;
37647;SDS011;23490;53.656;10.076;2023-02-01T03:12:41;29.13;;;4.50;;
37647;SDS011;23490;53.656;10.076;2023-02-01T03:15:20;27.58;;;5.30;;
37647;SDS011;23490;53.656;10.076;2023-02-01T03:17:51;23.40;;;3.58;;
37647;SDS011;23490;53.656;10.076;2023-02-01T03:20:20;30.42;;;4.65;;
37647;SDS011;23490;53.656;10.076;2023-02-01T03:22:47;18.02;;;3.67;;
37647;SDS011;23490;53.656;10.076;2023-02-01T03:25:17;15.48;;;3.05;;
37647;SDS011;23490;53.656;10.076;2023-02-01T03:27:52;14.40;;;3.13;;
37647;SDS011;23490;53.656;10.076;2023-02-01T03:30:27;22.45;;;3.63;;
37647;SDS011;23490;53.656;10.076;2023-02-01T03:32:57;18.38;;;3.58;;
37647;SDS011;23490;53.656;10.076;2023-02-01T03:35:27;16.80;;;3.22;;
37647;SDS011;23490;53.656;10.076;2023-02-01T03:37:56;20.30;;;3.88;;
37647;SDS011;23490;53.656;10.076;2023-02-01T03:40:28;15.05;;;2.97;;
37647;SDS011;23490;53.656;10.076;2023-02-01T03:43:00;19.08;;;4.22;;
37647;SDS011;23490;53.656;10.076;2023-02-01T03:45:31;17.20;;;3.33;;
37647;SDS011;23490;53.656;10.076;2023-02-01T03:48:01;20.80;;;3.85;;
37647;SDS011;23490;53.656;10.076;2023-02-01T03:50:29;20.92;;;4.00;;
37647;SDS011;23490;53.656;10.076;2023-02-01T03:52:59;19.45;;;3.20;;
37647;SDS011;23490;53.656;10.076;2023-02-01T03:55:29;19.38;;;4.75;;
37647;SDS011;23490;53.656;10.076;2023-02-01T03:57:57;14.55;;;3.30;;
37647;SDS011;23490;53.656;10.076;2023-02-01T04:00:27;18.30;;;3.25;;
37647;SDS011;23490;53.656;10.076;2023-02-01T04:02:52;15.10;;;2.40;;
37647;SDS011;23490;53.656;10.076;2023-02-01T04:05:18;22.08;;;3.13;;
37647;SDS011;23490;53.656;10.076;2023-02-01T04:07:44;17.55;;;3.38;;
37647;SDS011;23490;53.656;10.076;2023-02-01T04:10:09;10.95;;;2.35;;
37647;SDS011;23490;53.656;10.076;2023-02-01T04:12:35;15.68;;;3.58;;
37647;SDS011;23490;53.656;10.076;2023-02-01T04:15:01;23.63;;;3.53;;
37647;SDS011;23490;53.656;10.076;2023-02-01T04:17:26;22.02;;;2.95;;
37647;SDS011;23490;53.656;10.076;2023-02-01T04:19:51;14.63;;;4.28;;
37647;SDS011;23490;53.656;10.076;2023-02-01T04:22:17;17.05;;;3.20;;
37647;SDS011;23490;53.656;10.076;2023-02-01T04:24:42;14.98;;;2.08;;
37647;SDS011;23490;53.656;10.076;2023-02-01T04:27:07;14.40;;;2.05;;
37647;SDS011;23490;53.656;10.076;2023-02-01T04:29:33;9.98;;;1.85;;
37647;SDS011;23490;53.656;10.076;2023-02-01T04:31:58;11.27;;;1.98;;
37647;SDS011;23490;53.656;10.076;2023-02-01T04:34:24;6.72;;;1.55;;
37647;SDS011;23490;53.656;10.076;2023-02-01T04:36:50;8.77;;;1.77;;
37647;SDS011;23490;53.656;10.076;2023-02-01T04:39:15;13.23;;;2.72;;
37647;SDS011;23490;53.656;10.076;2023-02-01T04:41:41;14.88;;;2.60;;
37647;SDS011;23490;53.656;10.076;2023-02-01T04:44:08;15.15;;;3.25;;
37647;SDS011;23490;53.656;10.076;2023-02-01T04:46:38;15.38;;;2.60;;
37647;SDS011;23490;53.656;10.076;2023-02-01T04:49:04;19.10;;;3.42;;
37647;SDS011;23490;53.656;10.076;2023-02-01T04:51:29;17.77;;;3.70;;
37647;SDS011;23490;53.656;10.076;2023-02-01T04:53:55;14.23;;;2.85;;
37647;SDS011;23490;53.656;10.076;2023-02-01T04:56:20;10.45;;;1.70;;
37647;SDS011;23490;53.656;10.076;2023-02-01T04:58:46;12.57;;;1.95;;
37647;SDS011;23490;53.656;10.076;2023-02-01T05:01:11;8.27;;;1.58;;
37647;SDS011;23490;53.656;10.076;2023-02-01T05:03:37;7.70;;;1.20;;
37647;SDS011;23490;53.656;10.076;2023-02-01T05:06:02;8.95;;;1.73;;
37647;SDS011;23490;53.656;10.076;2023-02-01T05:08:29;8.05;;;1.42;;
37647;SDS011;23490;53.656;10.076;2023-02-01T05:10:55;13.43;;;1.50;;
37647;SDS011;23490;53.656;10.076;2023-02-01T05:13:20;10.73;;;2.10;;
37647;SDS011;23490;53.656;10.076;2023-02-01T05:16:04;10.85;;;1.92;;
37647;SDS011;23490;53.656;10.076;2023-02-01T05:18:30;8.95;;;2.15;;
37647;SDS011;23490;53.656;10.076;2023-02-01T05:20:56;10.82;;;1.90;;
37647;SDS011;23490;53.656;10.076;2023-02-01T05:23:21;10.05;;;2.60;;
37647;SDS011;23490;53.656;10.076;2023-02-01T05:25:46;6.32;;;1.23;;
37647;SDS011;23490;53.656;10.076;2023-02-01T05:28:12;4.80;;;1.35;;
37647;SDS011;23490;53.656;10.076;2023-02-01T05:30:37;8.82;;;1.13;;
37647;SDS011;23490;53.656;10.076;2023-02-01T05:33:03;5.40;;;1.30;;
37647;SDS011;23490;53.656;10.076;2023-02-01T05:35:28;4.88;;;1.00;;
37647;SDS011;23490;53.656;10.076;2023-02-01T05:37:54;4.93;;;0.90;;
37647;SDS011;23490;53.656;10.076;2023-02-01T05:40:19;2.40;;;0.80;;
37647;SDS011;23490;53.656;10.076;2023-02-01T05:42:44;3.83;;;0.63;;
37647;SDS011;23490;53.656;10.076;2023-02-01T05:45:10;2.42;;;0.77;;
37647;SDS011;23490;53.656;10.076;2023-02-01T05:47:36;4.20;;;1.15;;
37647;SDS011;23490;53.656;10.076;2023-02-01T05:50:02;2.35;;;0.60;;
37647;SDS011;23490;53.656;10.076;2023-02-01T05:52:28;3.05;;;0.70;;
37647;SDS011;23490;53.656;10.076;2023-02-01T05:54:54;3.88;;;1.45;;
37647;SDS011;23490;53.656;10.076;2023-02-01T05:57:19;7.35;;;0.93;;
37647;SDS011;23490;53.656;10.076;2023-02-01T05:59:44;2.58;;;0.60;;
37647;SDS011;23490;53.656;10.076;2023-02-01T06:02:13;2.30;;;1.00;;
37647;SDS011;23490;53.656;10.076;2023-02-01T06:04:40;3.65;;;1.05;;
37647;SDS011;23490;53.656;10.076;2023-02-01T06:07:05;2.22;;;0.50;;
37647;SDS011;23490;53.656;10.076;2023-02-01T06:09:33;1.85;;;0.73;;
37647;SDS011;23490;53.656;10.076;2023-02-01T06:11:58;6.50;;;0.70;;
37647;SDS011;23490;53.656;10.076;2023-02-01T06:14:24;5.43;;;0.80;;
37647;SDS011;23490;53.656;10.076;2023-02-01T06:16:49;3.92;;;0.57;;
37647;SDS011;23490;53.656;10.076;2023-02-01T06:19:15;2.95;;;0.75;;
37647;SDS011;23490;53.656;10.076;2023-02-01T06:21:40;3.85;;;0.70;;
37647;SDS011;23490;53.656;10.076;2023-02-01T06:24:05;3.05;;;0.75;;
37647;SDS011;23490;53.656;10.076;2023-02-01T06:26:31;5.80;;;0.90;;
37647;SDS011;23490;53.656;10.076;2023-02-01T06:28:56;5.18;;;1.25;;
37647;SDS011;23490;53.656;10.076;2023-02-01T06:31:22;5.10;;;1.05;;
37647;SDS011;23490;53.656;10.076;2023-02-01T06:33:48;6.07;;;0.70;;
37647;SDS011;23490;53.656;10.076;2023-02-01T06:36:14;3.78;;;0.73;;
37647;SDS011;23490;53.656;10.076;2023-02-01T06:38:40;2.65;;;0.73;;
37647;SDS011;23490;53.656;10.076;2023-02-01T06:41:06;4.40;;;0.93;;
37647;SDS011;23490;53.656;10.076;2023-02-01T06:43:32;13.65;;;1.73;;
37647;SDS011;23490;53.656;10.076;2023-02-01T06:46:01;5.40;;;1.23;;
37647;SDS011;23490;53.656;10.076;2023-02-01T06:50:53;6.82;;;1.92;;
37647;SDS011;23490;53.656;10.076;2023-02-01T06:53:18;5.45;;;1.20;;
37647;SDS011;23490;53.656;10.076;2023-02-01T06:55:54;8.25;;;1.27;;
37647;SDS011;23490;53.656;10.076;2023-02-01T06:58:21;9.30;;;1.80;;
37647;SDS011;23490;53.656;10.076;2023-02-01T07:00:47;7.15;;;1.30;;
37647;SDS011;23490;53.656;10.076;2023-02-01T07:03:13;9.95;;;2.47;;
37647;SDS011;23490;53.656;10.076;2023-02-01T07:05:38;11.10;;;1.48;;
37647;SDS011;23490;53.656;10.076;2023-02-01T07:08:04;9.50;;;1.60;;
37647;SDS011;23490;53.656;10.076;2023-02-01T07:10:29;14.00;;;2.13;;
37647;SDS011;23490;53.656;10.076;2023-02-01T07:12:57;8.23;;;1.92;;
37647;SDS011;23490;53.656;10.076;2023-02-01T07:15:23;12.82;;;1.60;;
37647;SDS011;23490;53.656;10.076;2023-02-01T07:17:48;11.90;;;2.75;;
37647;SDS011;23490;53.656;10.076;2023-02-01T07:20:14;14.77;;;2.78;;
37647;SDS011;23490;53.656;10.076;2023-02-01T07:22:40;14.52;;;2.38;;
37647;SDS011;23490;53.656;10.076;2023-02-01T07:25:06;17.40;;;3.08;;
37647;SDS011;23490;53.656;10.076;2023-02-01T07:27:33;11.90;;;2.35;;
37647;SDS011;23490;53.656;10.076;2023-02-01T07:29:59;18.48;;;3.47;;
37647;SDS011;23490;53.656;10.076;2023-02-01T07:32:27;20.20;;;3.22;;
37647;SDS011;23490;53.656;10.076;2023-02-01T07:34:53;17.27;;;3.45;;
37647;SDS011;23490;53.656;10.076;2023-02-01T07:37:18;26.67;;;3.90;;
37647;SDS011;23490;53.656;10.076;2023-02-01T07:39:43;26.73;;;3.58;;
37647;SDS011;23490;53.656;10.076;2023-02-01T07:42:09;23.02;;;3.13;;
37647;SDS011;23490;53.656;10.076;2023-02-01T07:44:34;16.67;;;2.92;;
37647;SDS011;23490;53.656;10.076;2023-02-01T07:46:59;18.85;;;3.55;;
37647;SDS011;23490;53.656;10.076;2023-02-01T07:49:25;17.50;;;3.13;;
37647;SDS011;23490;53.656;10.076;2023-02-01T07:51:50;23.42;;;3.03;;
37647;SDS011;23490;53.656;10.076;2023-02-01T07:54:16;25.15;;;4.00;;
37647;SDS011;23490;53.656;10.076;2023-02-01T07:56:41;16.27;;;3.55;;
37647;SDS011;23490;53.656;10.076;2023-02-01T07:59:06;16.17;;;3.15;;
37647;SDS011;23490;53.656;10.076;2023-02-01T08:01:32;21.67;;;3.72;;
37647;SDS011;23490;53.656;10.076;2023-02-01T08:03:59;17.33;;;3.15;;
37647;SDS011;23490;53.656;10.076;2023-02-01T08:06:26;27.08;;;4.70;;
37647;SDS011;23490;53.656;10.076;2023-02-01T08:08:53;26.23;;;4.07;;
37647;SDS011;23490;53.656;10.076;2023-02-01T08:11:19;22.90;;;4.30;;
37647;SDS011;23490;53.656;10.076;2023-02-01T08:13:46;27.15;;;5.22;;
37647;SDS011;23490;53.656;10.076;2023-02-01T08:16:12;17.35;;;3.00;;
37647;SDS011;23490;53.656;10.076;2023-02-01T08:18:39;18.25;;;3.17;;
37647;SDS011;23490;53.656;10.076;2023-02-01T08:21:05;17.80;;;2.80;;
37647;SDS011;23490;53.656;10.076;2023-02-01T08:23:32;24.70;;;3.67;;
37647;SDS011;23490;53.656;10.076;2023-02-01T08:26:31;25.42;;;4.75;;
37647;SDS011;23490;53.656;10.076;2023-02-01T08:28:54;16.15;;;4.15;;
37647;SDS011;23490;53.656;10.076;2023-02-01T08:31:22;26.15;;;4.32;;
37647;SDS011;23490;53.656;10.076;2023-02-01T08:33:50;15.30;;;3.72;;
37647;SDS011;23490;53.656;10.076;2023-02-01T08:36:17;21.05;;;3.30;;
37647;SDS011;23490;53.656;10.076;2023-02-01T08:38:43;20.50;;;4.13;;
37647;SDS011;23490;53.656;10.076;2023-02-01T08:41:10;19.38;;;3.35;;
37647;SDS011;23490;53.656;10.076;2023-02-01T08:43:37;21.52;;;3.22;;
37647;SDS011;23490;53.656;10.076;2023-02-01T08:46:03;14.60;;;2.40;;
37647;SDS011;23490;53.656;10.076;2023-02-01T08:48:29;18.92;;;3.22;;
37647;SDS011;23490;53.656;10.076;2023-02-01T08:50:55;16.90;;;3.25;;
37647;SDS011;23490;53.656;10.076;2023-02-01T08:53:21;18.35;;;3.70;;
37647;SDS011;23490;53.656;10.076;2023-02-01T08:55:47;14.93;;;3.30;;
37647;SDS011;23490;53.656;10.076;2023-02-01T08:58:13;23.08;;;2.75;;
37647;SDS011;23490;53.656;10.076;2023-02-01T09:00:39;23.10;;;4.20;;
37647;SDS011;23490;53.656;10.076;2023-02-01T09:03:05;17.67;;;3.13;;
37647;SDS011;23490;53.656;10.076;2023-02-01T09:05:30;13.88;;;2.75;;
37647;SDS011;23490;53.656;10.076;2023-02-01T09:07:56;10.95;;;3.30;;
37647;SDS011;23490;53.656;10.076;2023-02-01T09:10:21;16.83;;;2.88;;
37647;SDS011;23490;53.656;10.076;2023-02-01T09:12:46;9.88;;;1.85;;
37647;SDS011;23490;53.656;10.076;2023-02-01T09:15:12;16.05;;;3.38;;
37647;SDS011;23490;53.656;10.076;2023-02-01T09:17:37;15.13;;;2.72;;
37647;SDS011;23490;53.656;10.076;2023-02-01T09:20:03;26.15;;;3.50;;
37647;SDS011;23490;53.656;10.076;2023-02-01T09:22:29;19.58;;;3.65;;
37647;SDS011;23490;53.656;10.076;2023-02-01T09:24:55;16.92;;;3.20;;
37647;SDS011;23490;53.656;10.076;2023-02-01T09:27:20;20.83;;;4.15;;
37647;SDS011;23490;53.656;10.076;2023-02-01T09:29:46;13.95;;;2.60;;
37647;SDS011;23490;53.656;10.076;2023-02-01T09:32:17;21.23;;;3.33;;
37647;SDS011;23490;53.656;10.076;2023-02-01T09:34:42;17.33;;;2.85;;
37647;SDS011;23490;53.656;10.076;2023-02-01T09:37:08;25.77;;;5.47;;
37647;SDS011;23490;53.656;10.076;2023-02-01T09:39:33;15.98;;;2.70;;
37647;SDS011;23490;53.656;10.076;2023-02-01T09:44:37;13.77;;;2.45;;
37647;SDS011;23490;53.656;10.076;2023-02-01T09:47:26;22.58;;;4.07;;
37647;SDS011;23490;53.656;10.076;2023-02-01T09:49:59;12.07;;;3.03;;
37647;SDS011;23490;53.656;10.076;2023-02-01T09:52:34;24.05;;;2.83;;
37647;SDS011;23490;53.656;10.076;2023-02-01T09:55:04;17.02;;;3.90;;
37647;SDS011;23490;53.656;10.076;2023-02-01T09:57:53;15.57;;;2.72;;
37647;SDS011;23490;53.656;10.076;2023-02-01T10:00:25;20.90;;;3.15;;
37647;SDS011;23490;53.656;10.076;2023-02-01T10:02:55;13.07;;;3.88;;
37647;SDS011;23490;53.656;10.076;2023-02-01T10:05:25;18.98;;;2.42;;
37647;SDS011;23490;53.656;10.076;2023-02-01T10:10:52;14.68;;;3.35;;
37647;SDS011;23490;53.656;10.076;2023-02-01T10:19:01;23.73;;;3.00;;
37647;SDS011;23490;53.656;10.076;2023-02-01T10:21:33;18.92;;;3.70;;
37647;SDS011;23490;53.656;10.076;2023-02-01T10:24:20;22.85;;;3.22;;
37647;SDS011;23490;53.656;10.076;2023-02-01T10:29:47;24.38;;;3.20;;
37647;SDS011;23490;53.656;10.076;2023-02-01T10:32:31;20.58;;;3.47;;
37647;SDS011;23490;53.656;10.076;2023-02-01T10:35:10;17.55;;;3.35;;
37647;SDS011;23490;53.656;10.076;2023-02-01T10:37:40;16.60;;;3.10;;
37647;SDS011;23490;53.656;10.076;2023-02-01T10:42:41;16.50;;;2.97;;
37647;SDS011;23490;53.656;10.076;2023-02-01T10:45:18;15.85;;;2.83;;
37647;SDS011;23490;53.656;10.076;2023-02-01T10:47:46;19.40;;;4.47;;
37647;SDS011;23490;53.656;10.076;2023-02-01T10:50:33;15.68;;;3.38;;
37647;SDS011;23490;53.656;10.076;2023-02-01T10:53:25;21.63;;;4.40;;
37647;SDS011;23490;53.656;10.076;2023-02-01T10:55:54;17.17;;;3.00;;
37647;SDS011;23490;53.656;10.076;2023-02-01T10:58:31;23.48;;;3.50;;
37647;SDS011;23490;53.656;10.076;2023-02-01T11:03:40;20.67;;;2.80;;
37647;SDS011;23490;53.656;10.076;2023-02-01T11:08:44;16.92;;;2.78;;
37647;SDS011;23490;53.656;10.076;2023-02-01T11:11:12;22.20;;;2.58;;
37647;SDS011;23490;53.656;10.076;2023-02-01T11:13:39;16.23;;;2.95;;
37647;SDS011;23490;53.656;10.076;2023-02-01T11:16:06;11.98;;;1.98;;
37647;SDS011;23490;53.656;10.076;2023-02-01T11:18:36;15.68;;;2.40;;
37647;SDS011;23490;53.656;10.076;2023-02-01T11:21:03;14.20;;;2.10;;
37647;SDS011;23490;53.656;10.076;2023-02-01T11:23:31;12.20;;;1.77;;
37647;SDS011;23490;53.656;10.076;2023-02-01T11:26:01;15.55;;;3.42;;
37647;SDS011;23490;53.656;10.076;2023-02-01T11:28:38;9.43;;;2.28;;
37647;SDS011;23490;53.656;10.076;2023-02-01T11:31:10;15.98;;;2.25;;
37647;SDS011;23490;53.656;10.076;2023-02-01T11:33:38;15.95;;;3.33;;
37647;SDS011;23490;53.656;10.076;2023-02-01T11:36:14;14.45;;;3.15;;
37647;SDS011;23490;53.656;10.076;2023-02-01T11:38:51;16.48;;;3.15;;
37647;SDS011;23490;53.656;10.076;2023-02-01T11:41:23;16.55;;;3.33;;
37647;SDS011;23490;53.656;10.076;2023-02-01T11:43:51;16.58;;;2.75;;
37647;SDS011;23490;53.656;10.076;2023-02-01T11:46:19;21.60;;;3.53;;
37647;SDS011;23490;53.656;10.076;2023-02-01T11:48:52;21.10;;;3.50;;
37647;SDS011;23490;53.656;10.076;2023-02-01T11:57:17;16.75;;;3.00;;
37647;SDS011;23490;53.656;10.076;2023-02-01T11:59:59;19.00;;;2.88;;
37647;SDS011;23490;53.656;10.076;2023-02-01T12:02:58;21.40;;;3.13;;
37647;SDS011;23490;53.656;10.076;2023-02-01T12:05:59;10.77;;;2.50;;
37647;SDS011;23490;53.656;10.076;2023-02-01T12:11:37;11.73;;;1.70;;
37647;SDS011;23490;53.656;10.076;2023-02-01T12:14:09;10.00;;;1.67;;
37647;SDS011;23490;53.656;10.076;2023-02-01T12:17:33;8.85;;;2.38;;
37647;SDS011;23490;53.656;10.076;2023-02-01T12:19:45;12.43;;;1.80;;
37647;SDS011;23490;53.656;10.076;2023-02-01T12:33:28;8.50;;;1.98;;
37647;SDS011;23490;53.656;10.076;2023-02-01T12:38:44;9.82;;;1.70;;
37647;SDS011;23490;53.656;10.076;2023-02-01T12:41:26;8.32;;;2.03;;
37647;SDS011;23490;53.656;10.076;2023-02-01T12:46:46;3.95;;;0.60;;
37647;SDS011;23490;53.656;10.076;2023-02-01T12:51:46;6.65;;;0.88;;
37647;SDS011;23490;53.656;10.076;2023-02-01T12:54:31;3.45;;;0.80;;
37647;SDS011;23490;53.656;10.076;2023-02-01T12:57:02;3.40;;;0.52;;
37647;SDS011;23490;53.656;10.076;2023-02-01T13:04:52;2.10;;;0.60;;
37647;SDS011;23490;53.656;10.076;2023-02-01T13:07:41;4.55;;;0.47;;
37647;SDS011;23490;53.656;10.076;2023-02-01T13:10:17;2.45;;;0.52;;
37647;SDS011;23490;53.656;10.076;2023-02-01T13:12:50;2.38;;;0.50;;
37647;SDS011;23490;53.656;10.076;2023-02-01T13:15:30;5.25;;;0.77;;
37647;SDS011;23490;53.656;10.076;2023-02-01T13:18:02;1.65;;;0.45;;
37647;SDS011;23490;53.656;10.076;2023-02-01T13:23:18;3.40;;;0.47;;
37647;SDS011;23490;53.656;10.076;2023-02-01T13:25:58;3.10;;;0.50;;
37647;SDS011;23490;53.656;10.076;2023-02-01T13:28:25;5.80;;;0.50;;
37647;SDS011;23490;53.656;10.076;2023-02-01T13:30:57;3.53;;;0.52;;
37647;SDS011;23490;53.656;10.076;2023-02-01T13:36:40;2.08;;;0.50;;
37647;SDS011;23490;53.656;10.076;2023-02-01T13:39:24;4.22;;;0.40;;
37647;SDS011;23490;53.656;10.076;2023-02-01T13:42:25;3.45;;;0.85;;
37647;SDS011;23490;53.656;10.076;2023-02-01T13:45:04;3.43;;;0.53;;
37647;SDS011;23490;53.656;10.076;2023-02-01T13:47:39;1.65;;;0.75;;
37647;SDS011;23490;53.656;10.076;2023-02-01T13:50:19;5.05;;;0.77;;
37647;SDS011;23490;53.656;10.076;2023-02-01T13:52:53;1.00;;;0.43;;
37647;SDS011;23490;53.656;10.076;2023-02-01T13:55:31;1.75;;;0.57;;
37647;SDS011;23490;53.656;10.076;2023-02-01T13:58:09;3.95;;;0.57;;
37647;SDS011;23490;53.656;10.076;2023-02-01T14:00:41;3.10;;;1.00;;
37647;SDS011;23490;53.656;10.076;2023-02-01T14:03:10;7.05;;;0.68;;
37647;SDS011;23490;53.656;10.076;2023-02-01T14:13:51;8.20;;;0.68;;
37647;SDS011;23490;53.656;10.076;2023-02-01T14:21:47;2.88;;;0.82;;
37647;SDS011;23490;53.656;10.076;2023-02-01T14:24:32;5.97;;;0.85;;
37647;SDS011;23490;53.656;10.076;2023-02-01T14:26:55;8.65;;;1.20;;
37647;SDS011;23490;53.656;10.076;2023-02-01T14:29:34;6.70;;;0.90;;
37647;SDS011;23490;53.656;10.076;2023-02-01T14:32:14;6.32;;;1.05;;
37647;SDS011;23490;53.656;10.076;2023-02-01T14:42:33;5.13;;;0.90;;
37647;SDS011;23490;53.656;10.076;2023-02-01T14:47:45;8.60;;;1.23;;
37647;SDS011;23490;53.656;10.076;2023-02-01T14:50:18;4.55;;;1.05;;
37647;SDS011;23490;53.656;10.076;2023-02-01T14:52:46;6.50;;;1.00;;
37647;SDS011;23490;53.656;10.076;2023-02-01T14:55:27;6.72;;;1.25;;
37647;SDS011;23490;53.656;10.076;2023-02-01T14:57:59;10.98;;;2.42;;
37647;SDS011;23490;53.656;10.076;2023-02-01T15:00:28;11.40;;;1.80;;
37647;SDS011;23490;53.656;10.076;2023-02-01T15:02:56;8.95;;;1.75;;
37647;SDS011;23490;53.656;10.076;2023-02-01T15:05:41;9.10;;;1.83;;
37647;SDS011;23490;53.656;10.076;2023-02-01T15:08:14;14.15;;;1.80;;
37647;SDS011;23490;53.656;10.076;2023-02-01T15:10:44;8.43;;;1.10;;
37647;SDS011;23490;53.656;10.076;2023-02-01T15:13:20;8.73;;;1.45;;
37647;SDS011;23490;53.656;10.076;2023-02-01T15:16:02;7.90;;;1.67;;
37647;SDS011;23490;53.656;10.076;2023-02-01T15:18:36;5.20;;;1.38;;
37647;SDS011;23490;53.656;10.076;2023-02-01T15:21:02;8.20;;;1.23;;
37647;SDS011;23490;53.656;10.076;2023-02-01T15:23:28;21.40;;;3.15;;
37647;SDS011;23490;53.656;10.076;2023-02-01T15:25:54;7.97;;;1.33;;
37647;SDS011;23490;53.656;10.076;2023-02-01T15:28:20;13.30;;;2.00;;
37647;SDS011;23490;53.656;10.076;2023-02-01T15:33:25;12.38;;;1.50;;
37647;SDS011;23490;53.656;10.076;2023-02-01T15:36:08;11.65;;;2.00;;
37647;SDS011;23490;53.656;10.076;2023-02-01T15:38:41;9.40;;;1.95;;
37647;SDS011;23490;53.656;10.076;2023-02-01T15:41:09;7.57;;;1.63;;
37647;SDS011;23490;53.656;10.076;2023-02-01T15:46:14;10.98;;;2.35;;
37647;SDS011;23490;53.656;10.076;2023-02-01T15:48:49;9.55;;;1.58;;
37647;SDS011;23490;53.656;10.076;2023-02-01T15:51:18;14.73;;;2.13;;
37647;SDS011;23490;53.656;10.076;2023-02-01T15:53:46;8.88;;;1.80;;
37647;SDS011;23490;53.656;10.076;2023-02-01T15:56:15;11.75;;;2.40;;
37647;SDS011;23490;53.656;10.076;2023-02-01T15:58:46;11.13;;;2.03;;
37647;SDS011;23490;53.656;10.076;2023-02-01T16:01:15;10.30;;;2.23;;
37647;SDS011;23490;53.656;10.076;2023-02-01T16:03:42;20.25;;;3.55;;
37647;SDS011;23490;53.656;10.076;2023-02-01T16:06:26;10.65;;;1.70;;
37647;SDS011;23490;53.656;10.076;2023-02-01T16:09:09;14.85;;;2.55;;
37647;SDS011;23490;53.656;10.076;2023-02-01T16:14:14;13.07;;;2.38;;
37647;SDS011;23490;53.656;10.076;2023-02-01T16:16:39;18.17;;;2.90;;
37647;SDS011;23490;53.656;10.076;2023-02-01T16:19:04;17.33;;;5.13;;
37647;SDS011;23490;53.656;10.076;2023-02-01T16:21:30;13.43;;;3.00;;
37647;SDS011;23490;53.656;10.076;2023-02-01T16:23:55;20.73;;;3.38;;
37647;SDS011;23490;53.656;10.076;2023-02-01T16:26:20;16.50;;;3.20;;
37647;SDS011;23490;53.656;10.076;2023-02-01T16:28:46;21.90;;;3.33;;
37647;SDS011;23490;53.656;10.076;2023-02-01T16:31:13;24.30;;;4.07;;
37647;SDS011;23490;53.656;10.076;2023-02-01T16:33:45;19.75;;;3.83;;
37647;SDS011;23490;53.656;10.076;2023-02-01T16:36:14;21.85;;;4.53;;
37647;SDS011;23490;53.656;10.076;2023-02-01T16:38:40;16.42;;;3.80;;
37647;SDS011;23490;53.656;10.076;2023-02-01T16:41:06;23.15;;;3.97;;
37647;SDS011;23490;53.656;10.076;2023-02-01T16:43:33;18.77;;;2.88;;